sensor_id;sensor_type;location;lat;lon;timestamp;P1;durP1;ratioP1;P2;durP2;ratioP2
20611;SDS011;10465;42.686;23.364;2022-07-06T00:01:18;12.20;;;10.07;;
20611;SDS011;10465;42.686;23.364;2022-07-06T00:03:44;12.05;;;10.20;;
20611;SDS011;10465;42.686;23.364;2022-07-06T00:06:10;11.98;;;10.65;;
20611;SDS011;10465;42.686;23.364;2022-07-06T00:08:36;11.23;;;9.98;;
20611;SDS011;10465;42.686;23.364;2022-07-06T00:11:02;12.77;;;9.85;;
20611;SDS011;10465;42.686;23.364;2022-07-06T00:13:28;10.63;;;9.50;;
20611;SDS011;10465;42.686;23.364;2022-07-06T00:15:53;12.00;;;9.55;;
20611;SDS011;10465;42.686;23.364;2022-07-06T00:18:19;12.23;;;9.95;;
20611;SDS011;10465;42.686;23.364;2022-07-06T00:20:44;13.27;;;10.18;;
20611;SDS011;10465;42.686;23.364;2022-07-06T00:23:10;11.32;;;9.77;;
20611;SDS011;10465;42.686;23.364;2022-07-06T00:25:36;14.05;;;9.40;;
20611;SDS011;10465;42.686;23.364;2022-07-06T00:28:01;12.38;;;9.45;;
20611;SDS011;10465;42.686;23.364;2022-07-06T00:30:27;11.40;;;8.95;;
20611;SDS011;10465;42.686;23.364;2022-07-06T00:32:53;13.73;;;9.45;;
20611;SDS011;10465;42.686;23.364;2022-07-06T00:35:18;13.40;;;9.77;;
20611;SDS011;10465;42.686;23.364;2022-07-06T00:37:44;11.35;;;9.32;;
20611;SDS011;10465;42.686;23.364;2022-07-06T00:40:09;12.30;;;10.10;;
20611;SDS011;10465;42.686;23.364;2022-07-06T00:42:39;14.00;;;10.50;;
20611;SDS011;10465;42.686;23.364;2022-07-06T00:45:08;13.02;;;9.20;;
20611;SDS011;10465;42.686;23.364;2022-07-06T00:47:35;15.38;;;10.35;;
20611;SDS011;10465;42.686;23.364;2022-07-06T00:50:01;14.52;;;10.27;;
20611;SDS011;10465;42.686;23.364;2022-07-06T00:52:43;12.80;;;10.35;;
20611;SDS011;10465;42.686;23.364;2022-07-06T00:55:10;10.75;;;9.65;;
20611;SDS011;10465;42.686;23.364;2022-07-06T00:57:37;15.07;;;10.57;;
20611;SDS011;10465;42.686;23.364;2022-07-06T01:00:03;12.73;;;9.70;;
20611;SDS011;10465;42.686;23.364;2022-07-06T01:02:31;12.80;;;10.68;;
20611;SDS011;10465;42.686;23.364;2022-07-06T01:04:57;13.80;;;11.40;;
20611;SDS011;10465;42.686;23.364;2022-07-06T01:07:22;15.40;;;11.48;;
20611;SDS011;10465;42.686;23.364;2022-07-06T01:09:48;12.90;;;11.50;;
20611;SDS011;10465;42.686;23.364;2022-07-06T01:12:14;15.60;;;11.70;;
20611;SDS011;10465;42.686;23.364;2022-07-06T01:14:39;12.88;;;11.48;;
20611;SDS011;10465;42.686;23.364;2022-07-06T01:17:05;18.52;;;12.02;;
20611;SDS011;10465;42.686;23.364;2022-07-06T01:19:32;13.70;;;11.52;;
20611;SDS011;10465;42.686;23.364;2022-07-06T01:21:57;15.27;;;11.65;;
20611;SDS011;10465;42.686;23.364;2022-07-06T01:24:23;14.73;;;11.75;;
20611;SDS011;10465;42.686;23.364;2022-07-06T01:26:48;17.40;;;14.07;;
20611;SDS011;10465;42.686;23.364;2022-07-06T01:29:14;17.00;;;13.82;;
20611;SDS011;10465;42.686;23.364;2022-07-06T01:31:49;18.20;;;15.30;;
20611;SDS011;10465;42.686;23.364;2022-07-06T01:34:15;16.67;;;14.23;;
20611;SDS011;10465;42.686;23.364;2022-07-06T01:36:42;20.98;;;14.73;;
20611;SDS011;10465;42.686;23.364;2022-07-06T01:39:08;16.20;;;13.65;;
20611;SDS011;10465;42.686;23.364;2022-07-06T01:41:34;19.35;;;14.20;;
20611;SDS011;10465;42.686;23.364;2022-07-06T01:43:59;20.20;;;14.63;;
20611;SDS011;10465;42.686;23.364;2022-07-06T01:46:25;20.25;;;15.32;;
20611;SDS011;10465;42.686;23.364;2022-07-06T01:48:51;19.85;;;16.52;;
20611;SDS011;10465;42.686;23.364;2022-07-06T01:51:16;21.60;;;16.35;;
20611;SDS011;10465;42.686;23.364;2022-07-06T01:53:42;23.23;;;17.40;;
20611;SDS011;10465;42.686;23.364;2022-07-06T01:56:08;19.73;;;15.60;;
20611;SDS011;10465;42.686;23.364;2022-07-06T01:58:34;21.25;;;16.15;;
20611;SDS011;10465;42.686;23.364;2022-07-06T02:00:59;18.10;;;15.32;;
20611;SDS011;10465;42.686;23.364;2022-07-06T02:03:25;21.60;;;15.15;;
20611;SDS011;10465;42.686;23.364;2022-07-06T02:05:51;20.10;;;15.57;;
20611;SDS011;10465;42.686;23.364;2022-07-06T02:08:16;16.17;;;13.82;;
20611;SDS011;10465;42.686;23.364;2022-07-06T02:10:42;16.70;;;13.18;;
20611;SDS011;10465;42.686;23.364;2022-07-06T02:13:08;15.23;;;11.88;;
20611;SDS011;10465;42.686;23.364;2022-07-06T02:15:34;12.95;;;10.88;;
20611;SDS011;10465;42.686;23.364;2022-07-06T02:17:59;13.20;;;10.88;;
20611;SDS011;10465;42.686;23.364;2022-07-06T02:20:24;11.88;;;9.75;;
20611;SDS011;10465;42.686;23.364;2022-07-06T02:22:50;12.05;;;9.48;;
20611;SDS011;10465;42.686;23.364;2022-07-06T02:25:15;10.68;;;9.57;;
20611;SDS011;10465;42.686;23.364;2022-07-06T02:27:41;11.95;;;9.40;;
20611;SDS011;10465;42.686;23.364;2022-07-06T02:30:06;12.90;;;9.40;;
20611;SDS011;10465;42.686;23.364;2022-07-06T02:32:32;10.55;;;9.07;;
20611;SDS011;10465;42.686;23.364;2022-07-06T02:34:58;13.05;;;9.20;;
20611;SDS011;10465;42.686;23.364;2022-07-06T02:37:24;10.55;;;9.45;;
20611;SDS011;10465;42.686;23.364;2022-07-06T02:39:50;16.92;;;10.05;;
20611;SDS011;10465;42.686;23.364;2022-07-06T02:42:15;11.57;;;9.77;;
20611;SDS011;10465;42.686;23.364;2022-07-06T02:44:41;13.32;;;10.05;;
20611;SDS011;10465;42.686;23.364;2022-07-06T02:47:06;14.23;;;10.05;;
20611;SDS011;10465;42.686;23.364;2022-07-06T02:49:31;12.13;;;9.90;;
20611;SDS011;10465;42.686;23.364;2022-07-06T02:51:57;11.77;;;9.60;;
20611;SDS011;10465;42.686;23.364;2022-07-06T02:54:22;14.23;;;9.80;;
20611;SDS011;10465;42.686;23.364;2022-07-06T02:56:48;11.57;;;9.55;;
20611;SDS011;10465;42.686;23.364;2022-07-06T02:59:17;12.35;;;9.80;;
20611;SDS011;10465;42.686;23.364;2022-07-06T03:01:42;14.23;;;9.80;;
20611;SDS011;10465;42.686;23.364;2022-07-06T03:04:08;14.32;;;9.80;;
20611;SDS011;10465;42.686;23.364;2022-07-06T03:06:33;13.85;;;10.00;;
20611;SDS011;10465;42.686;23.364;2022-07-06T03:08:59;15.15;;;10.13;;
20611;SDS011;10465;42.686;23.364;2022-07-06T03:11:25;15.20;;;10.25;;
20611;SDS011;10465;42.686;23.364;2022-07-06T03:13:51;12.40;;;9.68;;
20611;SDS011;10465;42.686;23.364;2022-07-06T03:16:16;13.07;;;10.32;;
20611;SDS011;10465;42.686;23.364;2022-07-06T03:18:41;13.23;;;9.60;;
20611;SDS011;10465;42.686;23.364;2022-07-06T03:21:07;14.23;;;9.88;;
20611;SDS011;10465;42.686;23.364;2022-07-06T03:23:33;14.15;;;9.40;;
20611;SDS011;10465;42.686;23.364;2022-07-06T03:25:58;12.80;;;10.25;;
20611;SDS011;10465;42.686;23.364;2022-07-06T03:28:23;11.73;;;9.57;;
20611;SDS011;10465;42.686;23.364;2022-07-06T03:30:49;11.25;;;9.88;;
20611;SDS011;10465;42.686;23.364;2022-07-06T03:33:14;11.02;;;9.73;;
20611;SDS011;10465;42.686;23.364;2022-07-06T03:35:40;12.60;;;9.45;;
20611;SDS011;10465;42.686;23.364;2022-07-06T03:38:05;11.35;;;9.65;;
20611;SDS011;10465;42.686;23.364;2022-07-06T03:40:30;12.45;;;10.40;;
20611;SDS011;10465;42.686;23.364;2022-07-06T03:42:56;12.25;;;10.15;;
20611;SDS011;10465;42.686;23.364;2022-07-06T03:45:21;14.35;;;10.95;;
20611;SDS011;10465;42.686;23.364;2022-07-06T03:47:47;11.60;;;9.10;;
20611;SDS011;10465;42.686;23.364;2022-07-06T03:50:12;13.23;;;10.45;;
20611;SDS011;10465;42.686;23.364;2022-07-06T03:52:38;16.02;;;11.38;;
20611;SDS011;10465;42.686;23.364;2022-07-06T03:55:07;12.43;;;10.75;;
20611;SDS011;10465;42.686;23.364;2022-07-06T03:57:38;13.77;;;10.60;;
20611;SDS011;10465;42.686;23.364;2022-07-06T04:00:05;15.05;;;11.00;;
20611;SDS011;10465;42.686;23.364;2022-07-06T04:02:32;12.55;;;10.55;;
20611;SDS011;10465;42.686;23.364;2022-07-06T04:04:57;13.55;;;10.43;;
20611;SDS011;10465;42.686;23.364;2022-07-06T04:07:23;15.40;;;10.75;;
20611;SDS011;10465;42.686;23.364;2022-07-06T04:09:48;14.27;;;10.70;;
20611;SDS011;10465;42.686;23.364;2022-07-06T04:12:14;12.90;;;10.25;;
20611;SDS011;10465;42.686;23.364;2022-07-06T04:14:39;11.50;;;9.63;;
20611;SDS011;10465;42.686;23.364;2022-07-06T04:17:05;11.40;;;8.38;;
20611;SDS011;10465;42.686;23.364;2022-07-06T04:19:48;14.15;;;9.05;;
20611;SDS011;10465;42.686;23.364;2022-07-06T04:22:14;12.07;;;8.50;;
20611;SDS011;10465;42.686;23.364;2022-07-06T04:24:39;11.20;;;8.73;;
20611;SDS011;10465;42.686;23.364;2022-07-06T04:27:05;11.00;;;8.38;;
20611;SDS011;10465;42.686;23.364;2022-07-06T04:29:30;10.38;;;8.60;;
20611;SDS011;10465;42.686;23.364;2022-07-06T04:31:56;10.15;;;7.90;;
20611;SDS011;10465;42.686;23.364;2022-07-06T04:34:21;13.65;;;7.60;;
20611;SDS011;10465;42.686;23.364;2022-07-06T04:36:47;10.35;;;7.40;;
20611;SDS011;10465;42.686;23.364;2022-07-06T04:39:12;10.30;;;7.60;;
20611;SDS011;10465;42.686;23.364;2022-07-06T04:41:38;9.77;;;6.97;;
20611;SDS011;10465;42.686;23.364;2022-07-06T04:44:03;8.63;;;7.22;;
20611;SDS011;10465;42.686;23.364;2022-07-06T04:46:29;10.18;;;7.80;;
20611;SDS011;10465;42.686;23.364;2022-07-06T04:48:54;9.85;;;7.97;;
20611;SDS011;10465;42.686;23.364;2022-07-06T04:51:20;12.05;;;8.65;;
20611;SDS011;10465;42.686;23.364;2022-07-06T04:53:45;11.27;;;7.82;;
20611;SDS011;10465;42.686;23.364;2022-07-06T04:56:10;10.18;;;8.10;;
20611;SDS011;10465;42.686;23.364;2022-07-06T04:58:36;11.00;;;8.55;;
20611;SDS011;10465;42.686;23.364;2022-07-06T05:01:02;12.43;;;9.52;;
20611;SDS011;10465;42.686;23.364;2022-07-06T05:03:27;12.63;;;8.43;;
20611;SDS011;10465;42.686;23.364;2022-07-06T05:05:53;14.80;;;9.80;;
20611;SDS011;10465;42.686;23.364;2022-07-06T05:08:18;13.02;;;9.48;;
20611;SDS011;10465;42.686;23.364;2022-07-06T05:10:44;12.02;;;9.15;;
20611;SDS011;10465;42.686;23.364;2022-07-06T05:13:10;14.95;;;10.40;;
20611;SDS011;10465;42.686;23.364;2022-07-06T05:15:35;12.88;;;10.10;;
20611;SDS011;10465;42.686;23.364;2022-07-06T05:18:01;14.88;;;10.63;;
20611;SDS011;10465;42.686;23.364;2022-07-06T05:20:26;14.07;;;10.38;;
20611;SDS011;10465;42.686;23.364;2022-07-06T05:22:52;16.50;;;11.45;;
20611;SDS011;10465;42.686;23.364;2022-07-06T05:25:17;18.13;;;11.18;;
20611;SDS011;10465;42.686;23.364;2022-07-06T05:27:43;14.95;;;11.55;;
20611;SDS011;10465;42.686;23.364;2022-07-06T05:30:08;14.25;;;11.48;;
20611;SDS011;10465;42.686;23.364;2022-07-06T05:32:34;16.65;;;11.70;;
20611;SDS011;10465;42.686;23.364;2022-07-06T05:35:00;15.13;;;11.27;;
20611;SDS011;10465;42.686;23.364;2022-07-06T05:37:25;14.52;;;11.02;;
20611;SDS011;10465;42.686;23.364;2022-07-06T05:39:50;14.27;;;11.55;;
20611;SDS011;10465;42.686;23.364;2022-07-06T05:42:16;13.10;;;10.32;;
20611;SDS011;10465;42.686;23.364;2022-07-06T05:44:42;13.57;;;10.77;;
20611;SDS011;10465;42.686;23.364;2022-07-06T05:47:07;11.82;;;10.23;;
20611;SDS011;10465;42.686;23.364;2022-07-06T05:49:51;12.73;;;10.07;;
20611;SDS011;10465;42.686;23.364;2022-07-06T05:52:35;14.77;;;10.48;;
20611;SDS011;10465;42.686;23.364;2022-07-06T05:55:01;12.82;;;10.70;;
20611;SDS011;10465;42.686;23.364;2022-07-06T05:57:27;14.18;;;10.15;;
20611;SDS011;10465;42.686;23.364;2022-07-06T05:59:52;14.00;;;11.02;;
20611;SDS011;10465;42.686;23.364;2022-07-06T06:02:17;13.48;;;10.15;;
20611;SDS011;10465;42.686;23.364;2022-07-06T06:04:43;12.45;;;10.38;;
20611;SDS011;10465;42.686;23.364;2022-07-06T06:07:08;13.02;;;10.15;;
20611;SDS011;10465;42.686;23.364;2022-07-06T06:09:34;19.40;;;10.68;;
20611;SDS011;10465;42.686;23.364;2022-07-06T06:11:59;12.23;;;10.55;;
20611;SDS011;10465;42.686;23.364;2022-07-06T06:14:24;13.65;;;11.07;;
20611;SDS011;10465;42.686;23.364;2022-07-06T06:16:50;16.98;;;11.75;;
20611;SDS011;10465;42.686;23.364;2022-07-06T06:19:15;14.98;;;10.80;;
20611;SDS011;10465;42.686;23.364;2022-07-06T06:21:41;13.38;;;10.25;;
20611;SDS011;10465;42.686;23.364;2022-07-06T06:24:06;12.63;;;10.23;;
20611;SDS011;10465;42.686;23.364;2022-07-06T06:26:32;14.30;;;10.73;;
20611;SDS011;10465;42.686;23.364;2022-07-06T06:28:57;15.55;;;10.75;;
20611;SDS011;10465;42.686;23.364;2022-07-06T06:31:23;14.05;;;11.13;;
20611;SDS011;10465;42.686;23.364;2022-07-06T06:33:48;14.70;;;11.13;;
20611;SDS011;10465;42.686;23.364;2022-07-06T06:36:14;13.88;;;10.63;;
20611;SDS011;10465;42.686;23.364;2022-07-06T06:38:39;12.45;;;10.05;;
20611;SDS011;10465;42.686;23.364;2022-07-06T06:41:05;14.95;;;10.68;;
20611;SDS011;10465;42.686;23.364;2022-07-06T06:43:30;14.10;;;10.50;;
20611;SDS011;10465;42.686;23.364;2022-07-06T06:45:56;13.57;;;10.80;;
20611;SDS011;10465;42.686;23.364;2022-07-06T06:48:21;14.25;;;10.40;;
20611;SDS011;10465;42.686;23.364;2022-07-06T06:50:47;13.13;;;10.63;;
20611;SDS011;10465;42.686;23.364;2022-07-06T06:53:12;11.88;;;9.50;;
20611;SDS011;10465;42.686;23.364;2022-07-06T06:55:38;13.18;;;11.18;;
20611;SDS011;10465;42.686;23.364;2022-07-06T06:58:03;14.43;;;10.95;;
20611;SDS011;10465;42.686;23.364;2022-07-06T07:00:29;12.20;;;10.48;;
20611;SDS011;10465;42.686;23.364;2022-07-06T07:02:54;14.52;;;10.73;;
20611;SDS011;10465;42.686;23.364;2022-07-06T07:05:20;14.57;;;10.98;;
20611;SDS011;10465;42.686;23.364;2022-07-06T07:07:45;11.43;;;10.15;;
20611;SDS011;10465;42.686;23.364;2022-07-06T07:10:11;14.10;;;10.07;;
20611;SDS011;10465;42.686;23.364;2022-07-06T07:12:43;14.02;;;10.82;;
20611;SDS011;10465;42.686;23.364;2022-07-06T07:15:09;10.77;;;9.65;;
20611;SDS011;10465;42.686;23.364;2022-07-06T07:17:35;12.43;;;9.93;;
20611;SDS011;10465;42.686;23.364;2022-07-06T07:20:00;12.00;;;10.60;;
20611;SDS011;10465;42.686;23.364;2022-07-06T07:22:26;12.90;;;10.35;;
20611;SDS011;10465;42.686;23.364;2022-07-06T07:24:52;14.82;;;10.50;;
20611;SDS011;10465;42.686;23.364;2022-07-06T07:27:17;13.05;;;11.27;;
20611;SDS011;10465;42.686;23.364;2022-07-06T07:29:43;13.32;;;11.93;;
20611;SDS011;10465;42.686;23.364;2022-07-06T07:32:08;13.95;;;11.80;;
20611;SDS011;10465;42.686;23.364;2022-07-06T07:34:34;14.43;;;11.60;;
20611;SDS011;10465;42.686;23.364;2022-07-06T07:36:59;15.00;;;11.98;;
20611;SDS011;10465;42.686;23.364;2022-07-06T07:39:24;15.25;;;12.07;;
20611;SDS011;10465;42.686;23.364;2022-07-06T07:41:50;15.93;;;11.73;;
20611;SDS011;10465;42.686;23.364;2022-07-06T07:44:16;16.17;;;12.18;;
20611;SDS011;10465;42.686;23.364;2022-07-06T07:46:41;13.00;;;11.60;;
20611;SDS011;10465;42.686;23.364;2022-07-06T07:49:07;13.02;;;10.43;;
20611;SDS011;10465;42.686;23.364;2022-07-06T07:51:32;13.48;;;11.57;;
20611;SDS011;10465;42.686;23.364;2022-07-06T07:53:58;14.32;;;11.25;;
20611;SDS011;10465;42.686;23.364;2022-07-06T07:56:23;15.02;;;11.70;;
20611;SDS011;10465;42.686;23.364;2022-07-06T07:58:49;13.60;;;11.20;;
20611;SDS011;10465;42.686;23.364;2022-07-06T08:01:14;14.35;;;11.57;;
20611;SDS011;10465;42.686;23.364;2022-07-06T08:03:40;13.98;;;12.32;;
20611;SDS011;10465;42.686;23.364;2022-07-06T08:06:05;14.00;;;11.38;;
20611;SDS011;10465;42.686;23.364;2022-07-06T08:08:31;12.75;;;10.82;;
20611;SDS011;10465;42.686;23.364;2022-07-06T08:10:56;14.18;;;11.20;;
20611;SDS011;10465;42.686;23.364;2022-07-06T08:13:21;12.52;;;10.57;;
20611;SDS011;10465;42.686;23.364;2022-07-06T08:15:47;12.98;;;11.10;;
20611;SDS011;10465;42.686;23.364;2022-07-06T08:18:12;11.98;;;10.73;;
20611;SDS011;10465;42.686;23.364;2022-07-06T08:20:38;12.98;;;10.77;;
20611;SDS011;10465;42.686;23.364;2022-07-06T08:23:04;12.75;;;10.55;;
20611;SDS011;10465;42.686;23.364;2022-07-06T08:25:30;14.70;;;11.68;;
20611;SDS011;10465;42.686;23.364;2022-07-06T08:27:56;13.25;;;11.85;;
20611;SDS011;10465;42.686;23.364;2022-07-06T08:30:22;14.63;;;11.93;;
20611;SDS011;10465;42.686;23.364;2022-07-06T08:32:47;13.82;;;12.32;;
20611;SDS011;10465;42.686;23.364;2022-07-06T08:35:13;14.55;;;10.80;;
20611;SDS011;10465;42.686;23.364;2022-07-06T08:37:38;12.68;;;10.25;;
20611;SDS011;10465;42.686;23.364;2022-07-06T08:40:04;14.18;;;10.82;;
20611;SDS011;10465;42.686;23.364;2022-07-06T08:42:31;14.88;;;10.77;;
20611;SDS011;10465;42.686;23.364;2022-07-06T08:44:58;12.07;;;10.10;;
20611;SDS011;10465;42.686;23.364;2022-07-06T08:47:26;14.65;;;10.32;;
20611;SDS011;10465;42.686;23.364;2022-07-06T08:49:53;12.35;;;11.02;;
20611;SDS011;10465;42.686;23.364;2022-07-06T08:52:19;13.55;;;11.45;;
20611;SDS011;10465;42.686;23.364;2022-07-06T08:54:44;13.13;;;10.55;;
20611;SDS011;10465;42.686;23.364;2022-07-06T08:57:10;12.02;;;10.25;;
20611;SDS011;10465;42.686;23.364;2022-07-06T08:59:35;13.00;;;10.52;;
20611;SDS011;10465;42.686;23.364;2022-07-06T09:02:03;13.10;;;11.20;;
20611;SDS011;10465;42.686;23.364;2022-07-06T09:04:29;12.90;;;11.00;;
20611;SDS011;10465;42.686;23.364;2022-07-06T09:06:57;13.50;;;11.43;;
20611;SDS011;10465;42.686;23.364;2022-07-06T09:09:23;14.70;;;11.00;;
20611;SDS011;10465;42.686;23.364;2022-07-06T09:11:49;15.70;;;11.35;;
20611;SDS011;10465;42.686;23.364;2022-07-06T09:14:15;15.05;;;11.30;;
20611;SDS011;10465;42.686;23.364;2022-07-06T09:16:41;12.45;;;10.05;;
20611;SDS011;10465;42.686;23.364;2022-07-06T09:19:07;11.27;;;9.85;;
20611;SDS011;10465;42.686;23.364;2022-07-06T09:21:36;12.63;;;10.52;;
20611;SDS011;10465;42.686;23.364;2022-07-06T09:24:02;13.23;;;11.82;;
20611;SDS011;10465;42.686;23.364;2022-07-06T09:26:32;12.80;;;11.50;;
20611;SDS011;10465;42.686;23.364;2022-07-06T09:28:59;15.35;;;11.70;;
20611;SDS011;10465;42.686;23.364;2022-07-06T09:31:24;13.88;;;11.05;;
20611;SDS011;10465;42.686;23.364;2022-07-06T09:33:56;12.82;;;11.30;;
20611;SDS011;10465;42.686;23.364;2022-07-06T09:36:43;13.93;;;11.73;;
20611;SDS011;10465;42.686;23.364;2022-07-06T09:39:17;12.95;;;11.60;;
20611;SDS011;10465;42.686;23.364;2022-07-06T09:41:44;14.40;;;11.30;;
20611;SDS011;10465;42.686;23.364;2022-07-06T09:44:11;14.50;;;11.98;;
20611;SDS011;10465;42.686;23.364;2022-07-06T09:46:40;13.27;;;11.52;;
20611;SDS011;10465;42.686;23.364;2022-07-06T09:49:06;12.68;;;11.32;;
20611;SDS011;10465;42.686;23.364;2022-07-06T09:51:35;18.20;;;12.35;;
20611;SDS011;10465;42.686;23.364;2022-07-06T09:54:03;12.98;;;11.57;;
20611;SDS011;10465;42.686;23.364;2022-07-06T09:56:37;14.90;;;12.30;;
20611;SDS011;10465;42.686;23.364;2022-07-06T09:59:10;17.00;;;12.90;;
20611;SDS011;10465;42.686;23.364;2022-07-06T10:01:37;14.27;;;12.73;;
20611;SDS011;10465;42.686;23.364;2022-07-06T10:04:05;13.30;;;11.90;;
20611;SDS011;10465;42.686;23.364;2022-07-06T10:06:31;19.17;;;12.63;;
20611;SDS011;10465;42.686;23.364;2022-07-06T10:08:57;16.52;;;13.75;;
20611;SDS011;10465;42.686;23.364;2022-07-06T10:11:24;15.70;;;13.55;;
20611;SDS011;10465;42.686;23.364;2022-07-06T10:13:50;13.60;;;11.98;;
20611;SDS011;10465;42.686;23.364;2022-07-06T10:16:21;16.00;;;13.30;;
20611;SDS011;10465;42.686;23.364;2022-07-06T10:18:48;14.95;;;13.10;;
20611;SDS011;10465;42.686;23.364;2022-07-06T10:21:16;15.55;;;13.93;;
20611;SDS011;10465;42.686;23.364;2022-07-06T10:23:42;15.70;;;12.88;;
20611;SDS011;10465;42.686;23.364;2022-07-06T10:26:08;14.40;;;12.48;;
20611;SDS011;10465;42.686;23.364;2022-07-06T10:28:35;14.20;;;11.98;;
20611;SDS011;10465;42.686;23.364;2022-07-06T10:31:00;17.25;;;13.68;;
20611;SDS011;10465;42.686;23.364;2022-07-06T10:33:27;16.98;;;13.05;;
20611;SDS011;10465;42.686;23.364;2022-07-06T10:35:52;17.20;;;13.48;;
20611;SDS011;10465;42.686;23.364;2022-07-06T10:38:20;15.35;;;13.32;;
20611;SDS011;10465;42.686;23.364;2022-07-06T10:41:01;16.10;;;13.32;;
20611;SDS011;10465;42.686;23.364;2022-07-06T10:43:35;15.57;;;12.68;;
20611;SDS011;10465;42.686;23.364;2022-07-06T10:46:20;19.02;;;13.45;;
20611;SDS011;10465;42.686;23.364;2022-07-06T10:48:46;14.73;;;13.18;;
20611;SDS011;10465;42.686;23.364;2022-07-06T10:51:22;16.60;;;12.80;;
20611;SDS011;10465;42.686;23.364;2022-07-06T10:53:55;15.38;;;12.70;;
20611;SDS011;10465;42.686;23.364;2022-07-06T10:56:31;14.25;;;11.70;;
20611;SDS011;10465;42.686;23.364;2022-07-06T11:01:38;14.88;;;13.30;;
20611;SDS011;10465;42.686;23.364;2022-07-06T11:04:08;16.25;;;13.30;;
20611;SDS011;10465;42.686;23.364;2022-07-06T11:06:40;15.50;;;13.82;;
20611;SDS011;10465;42.686;23.364;2022-07-06T11:09:08;15.95;;;13.93;;
20611;SDS011;10465;42.686;23.364;2022-07-06T11:14:01;14.77;;;13.27;;
20611;SDS011;10465;42.686;23.364;2022-07-06T11:16:31;16.45;;;14.60;;
20611;SDS011;10465;42.686;23.364;2022-07-06T11:21:40;15.45;;;13.85;;
20611;SDS011;10465;42.686;23.364;2022-07-06T11:24:36;16.08;;;14.18;;
20611;SDS011;10465;42.686;23.364;2022-07-06T11:27:00;15.73;;;14.02;;
20611;SDS011;10465;42.686;23.364;2022-07-06T11:29:27;17.40;;;15.60;;
20611;SDS011;10465;42.686;23.364;2022-07-06T11:31:57;16.45;;;14.75;;
20611;SDS011;10465;42.686;23.364;2022-07-06T11:34:29;18.80;;;14.55;;
20611;SDS011;10465;42.686;23.364;2022-07-06T11:36:57;16.50;;;14.55;;
20611;SDS011;10465;42.686;23.364;2022-07-06T11:39:27;21.02;;;16.20;;
20611;SDS011;10465;42.686;23.364;2022-07-06T11:41:54;16.85;;;15.15;;
20611;SDS011;10465;42.686;23.364;2022-07-06T11:44:20;16.55;;;14.80;;
20611;SDS011;10465;42.686;23.364;2022-07-06T11:46:46;15.80;;;14.13;;
20611;SDS011;10465;42.686;23.364;2022-07-06T11:49:12;15.77;;;13.23;;
20611;SDS011;10465;42.686;23.364;2022-07-06T11:51:38;15.63;;;14.02;;
20611;SDS011;10465;42.686;23.364;2022-07-06T11:54:15;16.85;;;14.45;;
20611;SDS011;10465;42.686;23.364;2022-07-06T11:56:52;18.25;;;13.80;;
20611;SDS011;10465;42.686;23.364;2022-07-06T11:59:21;18.55;;;13.63;;
20611;SDS011;10465;42.686;23.364;2022-07-06T12:01:49;17.67;;;15.13;;
20611;SDS011;10465;42.686;23.364;2022-07-06T12:04:14;16.95;;;15.05;;
20611;SDS011;10465;42.686;23.364;2022-07-06T12:06:40;15.50;;;13.90;;
20611;SDS011;10465;42.686;23.364;2022-07-06T12:09:11;15.68;;;14.07;;
20611;SDS011;10465;42.686;23.364;2022-07-06T12:11:37;18.15;;;14.43;;
20611;SDS011;10465;42.686;23.364;2022-07-06T12:16:43;15.45;;;12.88;;
20611;SDS011;10465;42.686;23.364;2022-07-06T12:19:09;14.00;;;12.52;;
20611;SDS011;10465;42.686;23.364;2022-07-06T12:21:36;14.95;;;13.35;;
20611;SDS011;10465;42.686;23.364;2022-07-06T12:24:07;13.63;;;12.27;;
20611;SDS011;10465;42.686;23.364;2022-07-06T12:26:39;13.90;;;12.45;;
20611;SDS011;10465;42.686;23.364;2022-07-06T12:29:06;14.95;;;12.60;;
20611;SDS011;10465;42.686;23.364;2022-07-06T12:31:36;15.00;;;12.93;;
20611;SDS011;10465;42.686;23.364;2022-07-06T12:34:03;14.73;;;12.88;;
20611;SDS011;10465;42.686;23.364;2022-07-06T12:36:30;13.63;;;12.27;;
20611;SDS011;10465;42.686;23.364;2022-07-06T12:38:56;13.82;;;11.70;;
20611;SDS011;10465;42.686;23.364;2022-07-06T12:41:32;13.35;;;11.95;;
20611;SDS011;10465;42.686;23.364;2022-07-06T12:44:00;13.32;;;11.65;;
20611;SDS011;10465;42.686;23.364;2022-07-06T12:49:01;11.77;;;9.93;;
20611;SDS011;10465;42.686;23.364;2022-07-06T12:51:28;14.30;;;10.40;;
20611;SDS011;10465;42.686;23.364;2022-07-06T12:54:11;10.93;;;9.77;;
20611;SDS011;10465;42.686;23.364;2022-07-06T12:56:37;11.18;;;9.73;;
20611;SDS011;10465;42.686;23.364;2022-07-06T12:59:23;11.23;;;9.80;;
20611;SDS011;10465;42.686;23.364;2022-07-06T13:01:49;11.70;;;10.45;;
20611;SDS011;10465;42.686;23.364;2022-07-06T13:04:21;10.88;;;9.77;;
20611;SDS011;10465;42.686;23.364;2022-07-06T13:06:47;11.90;;;9.60;;
20611;SDS011;10465;42.686;23.364;2022-07-06T13:09:12;10.07;;;9.18;;
20611;SDS011;10465;42.686;23.364;2022-07-06T13:11:40;10.18;;;9.18;;
20611;SDS011;10465;42.686;23.364;2022-07-06T13:14:05;9.93;;;9.02;;
20611;SDS011;10465;42.686;23.364;2022-07-06T13:16:31;9.57;;;8.68;;
20611;SDS011;10465;42.686;23.364;2022-07-06T13:18:59;11.20;;;8.85;;
20611;SDS011;10465;42.686;23.364;2022-07-06T13:21:25;9.40;;;8.50;;
20611;SDS011;10465;42.686;23.364;2022-07-06T13:23:51;8.15;;;7.35;;
20611;SDS011;10465;42.686;23.364;2022-07-06T13:26:16;7.88;;;7.18;;
20611;SDS011;10465;42.686;23.364;2022-07-06T13:28:42;8.57;;;6.70;;
20611;SDS011;10465;42.686;23.364;2022-07-06T13:31:07;7.38;;;6.63;;
20611;SDS011;10465;42.686;23.364;2022-07-06T13:33:33;6.93;;;6.22;;
20611;SDS011;10465;42.686;23.364;2022-07-06T13:35:58;8.80;;;6.63;;
20611;SDS011;10465;42.686;23.364;2022-07-06T13:38:26;6.18;;;5.68;;
20611;SDS011;10465;42.686;23.364;2022-07-06T13:40:52;7.43;;;6.65;;
20611;SDS011;10465;42.686;23.364;2022-07-06T13:43:18;5.40;;;4.90;;
20611;SDS011;10465;42.686;23.364;2022-07-06T13:45:43;4.45;;;4.07;;
20611;SDS011;10465;42.686;23.364;2022-07-06T13:48:10;5.93;;;5.20;;
20611;SDS011;10465;42.686;23.364;2022-07-06T13:50:35;5.10;;;4.70;;
20611;SDS011;10465;42.686;23.364;2022-07-06T13:53:01;4.25;;;3.90;;
20611;SDS011;10465;42.686;23.364;2022-07-06T13:55:26;4.68;;;3.78;;
20611;SDS011;10465;42.686;23.364;2022-07-06T13:57:52;4.00;;;3.70;;
20611;SDS011;10465;42.686;23.364;2022-07-06T14:00:17;5.00;;;4.10;;
20611;SDS011;10465;42.686;23.364;2022-07-06T14:02:43;4.65;;;4.25;;
20611;SDS011;10465;42.686;23.364;2022-07-06T14:05:09;4.57;;;3.40;;
20611;SDS011;10465;42.686;23.364;2022-07-06T14:07:35;4.43;;;4.03;;
20611;SDS011;10465;42.686;23.364;2022-07-06T14:10:00;4.47;;;3.90;;
20611;SDS011;10465;42.686;23.364;2022-07-06T14:12:26;6.28;;;4.00;;
20611;SDS011;10465;42.686;23.364;2022-07-06T14:14:52;3.75;;;3.45;;
20611;SDS011;10465;42.686;23.364;2022-07-06T14:17:17;3.92;;;3.60;;
20611;SDS011;10465;42.686;23.364;2022-07-06T14:19:43;4.22;;;3.83;;
20611;SDS011;10465;42.686;23.364;2022-07-06T14:22:08;3.80;;;3.40;;
20611;SDS011;10465;42.686;23.364;2022-07-06T14:24:34;4.32;;;3.67;;